KELK/ELK METAR and TAF weather

Enter ICAO airport designator
Station Type Date Time Source
KELK METAR 2021/04/12 03:55 UTC NOAA

KELK 120355Z AUTO 04009KT 10SM CLR 16/05 A2977 RMK AO2 T01610050


Station Type Date Time Source
KELK Decoded METAR 2021/04/12 03:55 UTC NOAA

Station name not available
Apr 11, 2021 - 11:55 PM EDT / 2021.04.12 0355 UTC
Wind: from the NE (040 degrees) at 10 MPH (9 KT):0
Visibility: 10 mile(s):0
Sky conditions: clear
Temperature: 61.0 F (16.1 C)
Dew Point: 41.0 F (5.0 C)
Relative Humidity: 47%
Pressure (altimeter): 29.77 in. Hg (1008 hPa)
ob: KELK 120355Z AUTO 04009KT 10SM CLR 16/05 A2977 RMK AO2 T01610050
cycle: 4

Station Type Date Time Source
KELK TAF UTC NOAA

Error!

Example: see airport list